ADDS METAR Data INFO
IDs: Format: Raw Decoded Include TAF

Data at: 0922 UTC 13 Dec 2017

METAR for:KGNV (Gainesville Rgnl, FL, US)
Text:KGNV 130853Z AUTO 27005KT 10SM CLR 03/00 A3006 RMK AO2 SLP180 T00280000 53008
Temperature: 2.8°C ( 37°F)
Dewpoint: 0.0°C ( 32°F) [RH = 82%]
Pressure (altimeter):30.06 inches Hg (1018.0 mb) [Sea level pressure: 1018.0 mb]
Winds:from the W (270 degrees) at 6 MPH (5 knots; 2.6 m/s)
Visibility:10 or more sm (16+ km)
Ceiling:at least 12,000 feet AGL
Clouds:sky clear below 12,000 feet AGL
QC Flag:automated observation with no human augmentation